Time;durP1;ratioP1;P1;durP2;ratioP2;P2;SDS_P1;SDS_P2;PMS_P1;PMS_P2;Temp;Humidity;BMP_temperature;BMP_pressure;BME280_temperature;BME280_humidity;BME280_pressure;Samples;Min_cycle;Max_cycle;Signal;HPM_P1;HPM_P2
2022/11/13 00:01:30;;;;;;;15.07;9.00;;;;;;;5.27;100.00;102630.69;5054570;28;21022;-69
2022/11/13 00:03:58;;;;;;;23.40;10.10;;;;;;;5.36;100.00;102635.78;5055303;28;20446;-69
2022/11/13 00:06:25;;;;;;;16.47;8.67;;;;;;;5.45;100.00;102639.88;5055659;28;20476;-70
2022/11/13 00:08:54;;;;;;;20.63;9.20;;;;;;;5.48;100.00;102632.19;5055104;28;20448;-69
2022/11/13 00:11:21;;;;;;;21.13;8.50;;;;;;;5.46;100.00;102636.16;5055081;28;20434;-69
2022/11/13 00:13:49;;;;;;;19.90;8.50;;;;;;;5.54;100.00;102628.66;5054343;28;20457;-69
2022/11/13 00:16:19;;;;;;;21.60;8.23;;;;;;;5.55;100.00;102624.09;5054129;28;20987;-69
2022/11/13 00:18:46;;;;;;;20.27;9.07;;;;;;;5.62;100.00;102624.03;5054287;28;20458;-69
2022/11/13 00:21:15;;;;;;;20.57;8.77;;;;;;;5.68;100.00;102623.19;5054220;28;20473;-68
2022/11/13 00:23:42;;;;;;;18.93;8.13;;;;;;;5.77;99.91;102616.50;5054262;28;20793;-69
2022/11/13 00:26:11;;;;;;;21.03;9.70;;;;;;;5.75;99.88;102624.78;5054826;28;20476;-68
2022/11/13 00:28:39;;;;;;;21.27;8.50;;;;;;;5.83;99.92;102616.44;5053855;28;20874;-66
2022/11/13 00:31:07;;;;;;;17.40;7.90;;;;;;;5.83;100.00;102615.63;5053702;28;20445;-66
2022/11/13 00:33:36;;;;;;;18.47;8.70;;;;;;;5.96;99.51;102609.34;5050891;28;20462;-66
2022/11/13 00:36:04;;;;;;;19.50;7.87;;;;;;;5.78;100.00;102613.59;5053787;28;20462;-73
2022/11/13 00:38:30;;;;;;;15.73;8.67;;;;;;;5.86;100.00;102609.81;5051137;28;20462;-71
2022/11/13 00:40:57;;;;;;;23.13;9.20;;;;;;;6.01;100.00;102612.19;5041856;28;20462;-71
2022/11/13 00:43:24;;;;;;;17.33;8.20;;;;;;;6.08;100.00;102610.28;5050123;28;20561;-72
2022/11/13 00:45:51;;;;;;;18.30;7.70;;;;;;;6.15;100.00;102608.34;5053500;28;20446;-71
2022/11/13 00:48:18;;;;;;;16.40;7.97;;;;;;;6.28;100.00;102616.28;5048681;28;20546;-71
2022/11/13 00:50:46;;;;;;;17.73;7.67;;;;;;;6.43;100.00;102613.25;5053148;28;20982;-71
2022/11/13 00:53:13;;;;;;;20.47;8.40;;;;;;;6.46;100.00;102609.28;5051880;28;20490;-72
2022/11/13 00:55:40;;;;;;;19.63;9.33;;;;;;;6.48;100.00;102613.41;5053600;28;20477;-71
2022/11/13 00:58:06;;;;;;;15.93;7.93;;;;;;;6.52;100.00;102613.78;5052773;28;20461;-71
2022/11/13 01:00:33;;;;;;;15.40;8.13;;;;;;;6.56;100.00;102601.53;5053429;28;20803;-71
2022/11/13 01:03:00;;;;;;;19.93;9.70;;;;;;;6.69;100.00;102605.94;5053162;28;20486;-72
2022/11/13 01:05:27;;;;;;;19.30;9.30;;;;;;;6.69;100.00;102598.69;5053327;28;20478;-72
2022/11/13 01:07:55;;;;;;;19.13;8.60;;;;;;;6.75;100.00;102587.00;5053209;28;20478;-72
2022/11/13 01:10:22;;;;;;;20.37;8.30;;;;;;;6.64;100.00;102585.06;5052973;28;20457;-71
2022/11/13 01:12:48;;;;;;;16.67;8.57;;;;;;;6.70;100.00;102584.16;5052712;28;20453;-71
2022/11/13 01:15:15;;;;;;;17.13;8.97;;;;;;;6.74;100.00;102581.84;5052698;28;20445;-72
2022/11/13 01:17:42;;;;;;;15.73;8.97;;;;;;;6.79;100.00;102582.81;5052578;28;20478;-72
2022/11/13 01:20:09;;;;;;;13.50;8.67;;;;;;;6.82;100.00;102581.53;5052983;28;20793;-71
2022/11/13 01:22:36;;;;;;;16.10;8.03;;;;;;;6.80;100.00;102584.44;5052971;28;20499;-71
2022/11/13 01:25:05;;;;;;;18.00;8.10;;;;;;;6.85;100.00;102574.88;5052745;28;20446;-71
2022/11/13 01:27:32;;;;;;;16.87;8.10;;;;;;;6.85;100.00;102573.00;5053096;28;20458;-72
2022/11/13 01:29:58;;;;;;;13.13;7.50;;;;;;;6.83;100.00;102559.75;5052853;28;20443;-71
2022/11/13 01:32:25;;;;;;;13.87;7.37;;;;;;;6.93;100.00;102566.47;5053240;28;20873;-71
2022/11/13 01:34:51;;;;;;;15.90;8.90;;;;;;;6.96;100.00;102560.66;5052994;28;21040;-72
2022/11/13 01:37:18;;;;;;;19.33;8.17;;;;;;;7.00;100.00;102559.16;5052838;28;20470;-71
2022/11/13 01:39:44;;;;;;;16.90;8.83;;;;;;;6.94;100.00;102560.03;5052982;28;20442;-72
2022/11/13 01:42:12;;;;;;;16.33;9.03;;;;;;;7.02;100.00;102557.03;5052875;28;20931;-72
2022/11/13 01:44:48;;;;;;;18.73;9.50;;;;;;;7.10;100.00;102563.97;5053019;28;20444;-72
2022/11/13 01:47:14;;;;;;;16.33;8.60;;;;;;;7.14;100.00;102563.28;5052467;28;20537;-71
2022/11/13 01:49:44;;;;;;;17.37;8.00;;;;;;;7.13;100.00;102564.34;5052886;28;20529;-71
2022/11/13 01:52:15;;;;;;;21.23;9.77;;;;;;;7.20;100.00;102566.94;5052798;28;20461;-71
2022/11/13 01:54:45;;;;;;;11.80;7.10;;;;;;;7.24;100.00;102552.78;5052270;28;20469;-72
2022/11/13 01:57:14;;;;;;;17.00;8.40;;;;;;;7.29;100.00;102552.91;5052608;28;20462;-71
2022/11/13 01:59:45;;;;;;;13.77;7.43;;;;;;;7.37;100.00;102556.31;5052247;28;20458;-72
2022/11/13 02:02:12;;;;;;;17.80;7.83;;;;;;;7.39;100.00;102551.50;5036617;28;20477;-71
2022/11/13 02:04:39;;;;;;;15.47;8.57;;;;;;;7.43;100.00;102552.69;5052709;28;20461;-72
2022/11/13 02:07:08;;;;;;;18.47;8.63;;;;;;;7.32;100.00;102547.06;5054600;28;20478;-72
2022/11/13 02:09:37;;;;;;;17.90;9.80;;;;;;;7.36;100.00;102539.34;5055990;28;20434;-72
2022/11/13 02:12:05;;;;;;;19.50;9.33;;;;;;;7.46;100.00;102544.97;5056278;28;20474;-71
2022/11/13 02:14:35;;;;;;;12.30;7.77;;;;;;;7.54;100.00;102543.81;5055880;28;20943;-71
2022/11/13 02:17:06;;;;;;;19.97;9.40;;;;;;;7.50;100.00;102543.47;5055387;28;20478;-71
2022/11/13 02:19:36;;;;;;;18.40;8.40;;;;;;;7.52;100.00;102532.44;5056363;28;20514;-72
2022/11/13 02:22:11;;;;;;;21.63;10.10;;;;;;;7.55;100.00;102540.06;5056362;28;20532;-72
2022/11/13 02:24:41;;;;;;;19.30;8.23;;;;;;;7.57;100.00;102535.28;5055993;28;20512;-72
2022/11/13 02:27:15;;;;;;;20.20;8.23;;;;;;;7.64;100.00;102538.66;5036192;28;20459;-74
2022/11/13 02:29:42;;;;;;;14.63;8.30;;;;;;;7.55;100.00;102532.78;5055172;28;20445;-66
2022/11/13 02:32:08;;;;;;;19.00;7.70;;;;;;;7.62;100.00;102527.31;5056082;28;20434;-71
2022/11/13 02:34:35;;;;;;;17.70;9.17;;;;;;;7.70;100.00;102535.06;5055919;28;20461;-71
2022/11/13 02:37:01;;;;;;;18.10;8.90;;;;;;;7.72;100.00;102522.13;5055529;28;20470;-70
2022/11/13 02:39:28;;;;;;;26.13;9.93;;;;;;;7.79;100.00;102522.84;5055419;28;20961;-70
2022/11/13 02:41:56;;;;;;;19.03;9.93;;;;;;;7.83;100.00;102521.34;5055785;28;20450;-70
2022/11/13 02:44:22;;;;;;;21.13;10.20;;;;;;;7.86;100.00;102521.91;5055733;28;20453;-70
2022/11/13 02:46:49;;;;;;;17.87;9.03;;;;;;;7.85;100.00;102521.09;5055024;28;20562;-71
2022/11/13 02:49:16;;;;;;;19.53;8.83;;;;;;;7.89;100.00;102513.34;5055565;28;20446;-70
2022/11/13 02:51:42;;;;;;;20.70;9.47;;;;;;;7.96;100.00;102514.84;5055537;28;20492;-70
2022/11/13 02:54:09;;;;;;;21.63;9.37;;;;;;;8.02;100.00;102515.81;5055483;28;20438;-70
2022/11/13 02:56:35;;;;;;;19.53;9.23;;;;;;;8.03;100.00;102509.34;5055166;28;20557;-70
2022/11/13 02:59:03;;;;;;;21.50;9.53;;;;;;;8.06;100.00;102503.50;5055706;28;20451;-70
2022/11/13 03:01:30;;;;;;;21.93;9.07;;;;;;;8.11;100.00;102503.59;5055330;28;20529;-70
2022/11/13 03:03:57;;;;;;;17.57;8.87;;;;;;;8.08;100.00;102490.56;5055043;28;20482;-68
2022/11/13 03:06:23;;;;;;;18.43;9.20;;;;;;;8.13;100.00;102496.06;5054483;28;20466;-70
2022/11/13 03:08:50;;;;;;;18.00;8.07;;;;;;;8.15;100.00;102496.66;5054490;28;20452;-70
2022/11/13 03:11:16;;;;;;;21.20;8.03;;;;;;;8.14;100.00;102497.69;5052815;28;20577;-70
2022/11/13 03:13:43;;;;;;;15.13;7.73;;;;;;;8.19;100.00;102488.91;5053438;28;20458;-70
2022/11/13 03:16:13;;;;;;;21.67;8.90;;;;;;;8.23;100.00;102480.09;5052973;28;20496;-70
2022/11/13 03:18:40;;;;;;;16.37;8.97;;;;;;;8.33;100.00;102485.72;5052252;28;20887;-70
2022/11/13 03:21:09;;;;;;;17.13;8.07;;;;;;;8.43;100.00;102487.81;5053990;28;21050;-71
2022/11/13 03:23:36;;;;;;;14.30;6.80;;;;;;;8.47;100.00;102491.69;5054915;28;20488;-70
2022/11/13 03:26:04;;;;;;;16.80;8.20;;;;;;;8.56;100.00;102495.66;5055091;28;20462;-70
2022/11/13 03:28:31;;;;;;;15.00;7.77;;;;;;;8.64;100.00;102491.75;5055033;28;20449;-70
2022/11/13 03:30:58;;;;;;;23.73;7.87;;;;;;;8.65;100.00;102493.38;5054577;28;20529;-70
2022/11/13 03:33:26;;;;;;;13.47;7.13;;;;;;;8.76;100.00;102499.78;5054986;28;20481;-70
2022/11/13 03:35:52;;;;;;;14.17;6.97;;;;;;;8.80;100.00;102498.25;5054782;28;20465;-70
2022/11/13 03:38:19;;;;;;;18.17;7.77;;;;;;;8.85;100.00;102506.44;5054540;28;20477;-70
2022/11/13 03:40:46;;;;;;;20.90;7.80;;;;;;;8.83;100.00;102501.28;5054346;28;20989;-70
2022/11/13 03:43:12;;;;;;;16.07;7.27;;;;;;;8.91;100.00;102507.38;5054367;28;21018;-70
2022/11/13 03:45:39;;;;;;;17.73;7.20;;;;;;;8.92;100.00;102509.00;5054756;28;20476;-70
2022/11/13 03:48:06;;;;;;;18.33;9.13;;;;;;;8.96;100.00;102510.19;5054640;28;20454;-70
2022/11/13 03:50:34;;;;;;;17.13;9.50;;;;;;;8.92;100.00;102515.25;5054697;28;20525;-70
2022/11/13 03:53:00;;;;;;;17.70;7.83;;;;;;;8.94;100.00;102517.69;5054337;28;20449;-70
2022/11/13 03:55:27;;;;;;;16.80;7.97;;;;;;;9.00;100.00;102516.75;5054583;28;20446;-70
2022/11/13 03:57:54;;;;;;;14.27;8.40;;;;;;;8.99;100.00;102510.50;5054007;28;20888;-70
2022/11/13 04:00:21;;;;;;;19.00;8.50;;;;;;;9.00;100.00;102511.34;5054458;28;20481;-70
2022/11/13 04:02:48;;;;;;;17.33;8.63;;;;;;;9.02;100.00;102503.78;5054005;28;20530;-70
2022/11/13 04:05:14;;;;;;;14.83;7.33;;;;;;;8.98;100.00;102497.22;5054292;28;20446;-71
2022/11/13 04:07:42;;;;;;;17.00;8.13;;;;;;;8.95;100.00;102500.44;5054290;28;20462;-71
2022/11/13 04:10:09;;;;;;;24.90;7.87;;;;;;;8.98;100.00;102489.13;5053742;28;20454;-70
2022/11/13 04:12:36;;;;;;;12.87;7.10;;;;;;;8.96;100.00;102485.84;5053755;28;20442;-70
2022/11/13 04:15:02;;;;;;;14.67;7.00;;;;;;;8.98;100.00;102481.81;5053790;28;20461;-70
2022/11/13 04:17:29;;;;;;;17.60;5.97;;;;;;;9.03;100.00;102483.78;5053705;28;20498;-71
2022/11/13 04:19:55;;;;;;;11.17;6.23;;;;;;;9.05;100.00;102476.28;5053195;28;20540;-69
2022/11/13 04:22:22;;;;;;;16.90;7.30;;;;;;;9.11;100.00;102472.59;5050942;28;20499;-69
2022/11/13 04:24:50;;;;;;;16.00;7.40;;;;;;;9.19;100.00;102474.91;5052779;28;20454;-69
2022/11/13 04:27:17;;;;;;;13.00;6.50;;;;;;;9.32;100.00;102469.16;5052774;28;20485;-68
2022/11/13 04:29:43;;;;;;;12.47;6.50;;;;;;;9.43;100.00;102466.59;5052036;28;20454;-69
2022/11/13 04:32:10;;;;;;;13.10;7.67;;;;;;;9.54;100.00;102466.53;5053728;28;20449;-69
2022/11/13 04:34:36;;;;;;;12.90;6.40;;;;;;;9.61;100.00;102460.97;5053772;28;20441;-70
2022/11/13 04:37:03;;;;;;;14.90;7.00;;;;;;;9.69;100.00;102459.69;5053657;28;20536;-69
2022/11/13 04:39:30;;;;;;;14.43;6.43;;;;;;;9.77;100.00;102473.63;5053361;28;20448;-69
2022/11/13 04:44:53;;;;;;;13.50;6.23;;;;;;;9.87;100.00;102459.41;4991883;28;20440;-72
2022/11/13 04:47:19;;;;;;;10.60;5.87;;;;;;;9.93;100.00;102468.44;5038488;28;20454;-72
2022/11/13 04:49:46;;;;;;;10.33;5.67;;;;;;;9.97;100.00;102461.47;5051003;28;20472;-70
2022/11/13 04:52:13;;;;;;;12.90;5.57;;;;;;;9.97;100.00;102456.88;5053065;28;20470;-70
2022/11/13 04:54:40;;;;;;;15.20;6.93;;;;;;;9.99;100.00;102456.59;5053312;28;20821;-69
2022/11/13 04:57:08;;;;;;;13.77;5.80;;;;;;;10.01;100.00;102463.41;5053413;28;20458;-72
2022/11/13 04:59:34;;;;;;;12.60;6.03;;;;;;;10.04;100.00;102467.50;5053599;28;20445;-72
2022/11/13 05:02:01;;;;;;;13.87;5.97;;;;;;;9.96;100.00;102462.50;5053015;28;20537;-73
2022/11/13 05:04:28;;;;;;;19.17;7.70;;;;;;;9.94;100.00;102459.25;5053450;28;20564;-73
2022/11/13 05:06:54;;;;;;;14.63;6.73;;;;;;;9.91;100.00;102470.56;5053329;28;20557;-74
2022/11/13 05:09:21;;;;;;;14.13;6.27;;;;;;;9.96;100.00;102468.78;5053184;28;20442;-72
2022/11/13 05:11:47;;;;;;;13.73;6.93;;;;;;;10.05;100.00;102471.88;5053452;28;20800;-74
2022/11/13 05:14:15;;;;;;;14.17;6.83;;;;;;;10.12;100.00;102469.78;5053353;28;20438;-74
2022/11/13 05:16:42;;;;;;;13.63;6.70;;;;;;;10.17;100.00;102469.81;5081517;22;20805;-70
2022/11/13 05:19:08;;;;;;;12.27;6.43;;;;;;;10.22;100.00;102459.06;5058013;28;20966;-70
2022/11/13 05:21:36;;;;;;;14.50;7.00;;;;;;;10.24;100.00;102465.09;5052977;28;20445;-70
2022/11/13 05:24:03;;;;;;;20.37;7.20;;;;;;;10.18;100.00;102462.53;5052980;28;20509;-70
2022/11/13 05:26:30;;;;;;;15.40;7.47;;;;;;;10.23;100.00;102463.44;5064869;28;20461;-70
2022/11/13 05:28:57;;;;;;;13.07;6.50;;;;;;;10.25;100.00;102469.44;5064151;28;21086;-70
2022/11/13 05:31:25;;;;;;;13.00;7.37;;;;;;;10.21;100.00;102465.56;5051771;28;20466;-70
2022/11/13 05:33:52;;;;;;;14.53;6.80;;;;;;;10.25;100.00;102464.00;5051232;28;20980;-70
2022/11/13 05:36:20;;;;;;;19.47;8.00;;;;;;;10.30;100.00;102457.84;5056362;28;20441;-69
2022/11/13 05:38:47;;;;;;;15.93;7.80;;;;;;;10.33;100.00;102463.56;5054083;28;20457;-70
2022/11/13 05:41:16;;;;;;;16.30;7.20;;;;;;;10.39;100.00;102460.91;5056573;28;20442;-70
2022/11/13 05:43:43;;;;;;;15.30;5.73;;;;;;;10.40;100.00;102462.53;5056373;28;20482;-70
2022/11/13 05:46:12;;;;;;;15.40;7.23;;;;;;;10.34;100.00;102458.97;5056633;28;20488;-70
2022/11/13 05:48:41;;;;;;;10.37;5.50;;;;;;;10.34;100.00;102459.78;5056664;28;20472;-69
2022/11/13 05:51:09;;;;;;;15.63;7.40;;;;;;;10.39;100.00;102466.34;5054705;28;20802;-70
2022/11/13 05:53:37;;;;;;;14.57;7.70;;;;;;;10.37;100.00;102457.66;5055981;28;20945;-69
2022/11/13 05:56:06;;;;;;;12.50;5.50;;;;;;;10.32;100.00;102459.22;5056546;28;20442;-70
2022/11/13 05:58:33;;;;;;;16.47;6.90;;;;;;;10.29;100.00;102456.19;5055993;28;21009;-70
2022/11/13 06:01:08;;;;;;;11.23;5.63;;;;;;;10.28;99.31;102447.25;5056413;28;20445;-71
2022/11/13 06:03:35;;;;;;;11.07;5.33;;;;;;;10.23;98.39;102449.88;5056272;28;20477;-70
2022/11/13 06:06:04;;;;;;;15.60;6.10;;;;;;;10.16;98.51;102453.84;5056075;28;20444;-70
2022/11/13 06:08:31;;;;;;;13.33;5.80;;;;;;;10.14;98.74;102450.56;5055700;28;20987;-70
2022/11/13 06:11:02;;;;;;;14.73;6.27;;;;;;;10.08;99.10;102439.66;5056320;28;20470;-70
2022/11/13 06:13:30;;;;;;;13.03;6.10;;;;;;;10.06;99.96;102439.13;5055905;28;20930;-70
2022/11/13 06:16:01;;;;;;;11.10;5.27;;;;;;;10.11;100.00;102446.47;5056190;28;20485;-70
2022/11/13 06:18:28;;;;;;;15.73;7.00;;;;;;;10.20;100.00;102434.13;5055770;28;20472;-70
2022/11/13 06:20:55;;;;;;;16.67;7.43;;;;;;;10.26;100.00;102433.13;5056048;28;20533;-70
2022/11/13 06:23:23;;;;;;;13.10;5.27;;;;;;;10.31;100.00;102435.94;5056027;28;20482;-70
2022/11/13 06:25:49;;;;;;;11.63;5.77;;;;;;;10.33;100.00;102433.78;5055491;28;20450;-69
2022/11/13 06:28:16;;;;;;;13.27;5.90;;;;;;;10.39;100.00;102423.81;5055300;28;20462;-71
2022/11/13 06:30:42;;;;;;;13.20;5.27;;;;;;;10.42;100.00;102420.59;5052795;28;20462;-69
2022/11/13 06:33:09;;;;;;;13.10;6.23;;;;;;;10.37;100.00;102422.44;5055794;28;20440;-69
2022/11/13 06:35:36;;;;;;;17.50;6.63;;;;;;;10.41;100.00;102424.38;5055694;28;20442;-69
2022/11/13 06:38:02;;;;;;;12.67;6.57;;;;;;;10.44;100.00;102418.44;5055709;28;20469;-69
2022/11/13 06:40:30;;;;;;;13.47;6.47;;;;;;;10.48;100.00;102416.03;5055735;28;20478;-69
2022/11/13 06:42:57;;;;;;;16.33;7.40;;;;;;;10.47;100.00;102417.13;5055153;28;20457;-69
2022/11/13 06:45:23;;;;;;;14.57;6.80;;;;;;;10.46;100.00;102413.59;5054925;28;20449;-69
2022/11/13 06:47:50;;;;;;;17.13;8.77;;;;;;;10.44;100.00;102415.72;5055084;28;20466;-69
2022/11/13 06:50:17;;;;;;;16.97;7.50;;;;;;;10.42;100.00;102415.19;5055519;28;20442;-68
2022/11/13 06:52:43;;;;;;;20.97;9.50;;;;;;;10.44;100.00;102412.22;5055495;28;20846;-69
2022/11/13 06:55:10;;;;;;;20.03;9.10;;;;;;;10.46;100.00;102412.78;5055462;28;20438;-69
2022/11/13 06:57:38;;;;;;;21.97;10.10;;;;;;;10.47;100.00;102414.41;5055322;28;20513;-69
2022/11/13 07:00:06;;;;;;;20.67;9.87;;;;;;;10.42;100.00;102411.66;5054891;28;20538;-71
2022/11/13 07:02:32;;;;;;;19.20;10.70;;;;;;;10.35;100.00;102409.13;5054966;28;20525;-70
2022/11/13 07:04:59;;;;;;;24.27;11.33;;;;;;;10.28;100.00;102397.69;5054827;28;20940;-69
2022/11/13 07:07:25;;;;;;;17.63;10.00;;;;;;;10.29;100.00;102400.13;5055160;28;20853;-70
2022/11/13 07:09:52;;;;;;;33.53;8.20;;;;;;;10.28;100.00;102403.94;5055166;28;20528;-68
2022/11/13 07:12:19;;;;;;;25.00;10.27;;;;;;;10.36;100.00;102408.09;5054482;28;20438;-68
2022/11/13 07:14:47;;;;;;;16.57;8.97;;;;;;;10.46;100.00;102410.06;5054713;28;20448;-68
2022/11/13 07:17:13;;;;;;;19.43;9.83;;;;;;;10.50;100.00;102401.19;5054371;28;20994;-71
2022/11/13 07:19:40;;;;;;;19.23;10.27;;;;;;;10.57;100.00;102400.97;5055074;28;20450;-71
2022/11/13 07:22:07;;;;;;;24.43;11.47;;;;;;;10.56;100.00;102412.88;5054920;28;20537;-69
2022/11/13 07:24:33;;;;;;;20.10;9.77;;;;;;;10.49;100.00;102393.28;5054715;28;20570;-72
2022/11/13 07:27:00;;;;;;;20.13;8.87;;;;;;;10.54;100.00;102401.50;5054489;28;20470;-69
2022/11/13 07:29:26;;;;;;;21.50;9.80;;;;;;;10.58;100.00;102391.75;5048342;28;20888;-69
2022/11/13 07:31:54;;;;;;;17.00;9.47;;;;;;;10.58;100.00;102402.59;5042373;28;20519;-74
2022/11/13 07:34:21;;;;;;;23.83;9.60;;;;;;;10.63;100.00;102391.81;5052940;28;20539;-70
2022/11/13 07:36:47;;;;;;;15.87;7.97;;;;;;;10.65;100.00;102395.09;5053575;28;20472;-70
2022/11/13 07:39:14;;;;;;;17.77;8.20;;;;;;;10.62;100.00;102398.31;5054022;28;20458;-70
2022/11/13 07:41:40;;;;;;;13.57;6.80;;;;;;;10.65;100.00;102402.41;5052795;28;20859;-70
2022/11/13 07:44:07;;;;;;;17.00;7.80;;;;;;;10.64;100.00;102398.88;5053193;28;20867;-70
2022/11/13 07:46:34;;;;;;;15.53;7.70;;;;;;;10.70;100.00;102389.72;5053478;28;20557;-69
2022/11/13 07:49:02;;;;;;;19.13;7.67;;;;;;;10.76;100.00;102393.31;5054287;28;20442;-69
2022/11/13 07:51:28;;;;;;;16.63;7.70;;;;;;;10.77;100.00;102390.31;5053917;28;20448;-68
2022/11/13 07:53:55;;;;;;;14.20;7.20;;;;;;;10.83;100.00;102389.28;5054317;28;20438;-69
2022/11/13 07:56:24;;;;;;;15.00;6.87;;;;;;;10.83;100.00;102392.00;5050912;28;20541;-69
2022/11/13 07:58:50;;;;;;;16.53;8.50;;;;;;;10.86;100.00;102383.34;5053501;28;20868;-68
2022/11/13 08:01:17;;;;;;;12.67;6.53;;;;;;;10.89;100.00;102386.59;5053004;28;20490;-68
2022/11/13 08:03:44;;;;;;;16.67;7.43;;;;;;;10.96;100.00;102393.47;5052055;28;20568;-72
2022/11/13 08:06:11;;;;;;;16.30;7.50;;;;;;;10.99;100.00;102392.94;5053698;28;20450;-74
2022/11/13 08:08:38;;;;;;;14.27;5.27;;;;;;;11.01;100.00;102392.69;5052787;28;20965;-70
2022/11/13 08:11:06;;;;;;;27.13;9.10;;;;;;;10.97;100.00;102391.56;5054044;28;20525;-69
2022/11/13 08:13:33;;;;;;;20.03;9.93;;;;;;;10.94;100.00;102392.91;5053073;28;20541;-70
2022/11/13 08:16:00;;;;;;;15.23;8.07;;;;;;;10.93;100.00;102395.88;5051829;28;20541;-70
2022/11/13 08:18:27;;;;;;;17.40;8.57;;;;;;;10.91;100.00;102395.31;5053291;28;20482;-73
2022/11/13 08:20:53;;;;;;;20.07;9.53;;;;;;;10.89;100.00;102383.91;5051006;28;20473;-73
2022/11/13 08:23:21;;;;;;;18.20;8.23;;;;;;;10.90;100.00;102389.09;5050881;28;20454;-70
2022/11/13 08:25:48;;;;;;;28.30;11.00;;;;;;;10.88;100.00;102382.28;5051579;28;20468;-70
2022/11/13 08:28:15;;;;;;;16.07;8.60;;;;;;;10.90;100.00;102382.84;5052636;28;20473;-69
2022/11/13 08:30:43;;;;;;;20.37;8.97;;;;;;;10.85;100.00;102381.72;5051115;28;20979;-69
2022/11/13 08:33:10;;;;;;;18.40;8.07;;;;;;;10.86;100.00;102391.47;5036187;28;20462;-69
2022/11/13 08:35:36;;;;;;;20.90;8.80;;;;;;;10.87;100.00;102386.88;5052369;28;20486;-69
2022/11/13 08:38:04;;;;;;;18.23;8.70;;;;;;;10.91;100.00;102381.75;5049702;28;20482;-69
2022/11/13 08:40:32;;;;;;;18.90;9.30;;;;;;;10.95;100.00;102383.69;5053416;28;20438;-69
2022/11/13 08:42:59;;;;;;;20.50;9.87;;;;;;;10.97;100.00;102383.44;5053398;28;20474;-69
2022/11/13 08:45:27;;;;;;;20.10;9.07;;;;;;;11.00;100.00;102383.72;5053314;28;20505;-69
2022/11/13 08:47:53;;;;;;;31.27;10.63;;;;;;;10.97;100.00;102383.44;5053286;28;20466;-69
2022/11/13 08:50:20;;;;;;;17.33;7.67;;;;;;;11.04;100.00;102373.19;5053334;28;20533;-69
2022/11/13 08:52:46;;;;;;;19.17;9.30;;;;;;;11.09;100.00;102384.88;5053302;28;20444;-69
2022/11/13 08:55:13;;;;;;;17.67;8.77;;;;;;;11.17;100.00;102383.59;5052957;28;20476;-69
2022/11/13 08:57:41;;;;;;;30.30;9.50;;;;;;;11.22;100.00;102380.91;5052876;28;20490;-69
2022/11/13 09:00:09;;;;;;;19.93;8.23;;;;;;;11.19;100.00;102386.03;5053236;28;20473;-69
2022/11/13 09:02:35;;;;;;;23.90;9.60;;;;;;;11.23;100.00;102381.72;5052886;28;20448;-69
2022/11/13 09:05:02;;;;;;;19.37;7.73;;;;;;;11.17;100.00;102383.59;5052795;28;20576;-69
2022/11/13 09:07:28;;;;;;;15.87;7.33;;;;;;;11.25;100.00;102385.81;5052789;28;20549;-69
2022/11/13 09:09:55;;;;;;;17.93;8.07;;;;;;;11.31;100.00;102378.53;5053056;28;20488;-69
2022/11/13 09:12:21;;;;;;;15.63;7.10;;;;;;;11.35;100.00;102385.88;5053114;28;20559;-69
2022/11/13 09:14:50;;;;;;;26.83;8.30;;;;;;;11.26;100.00;102379.31;5053068;28;20872;-69
2022/11/13 09:17:17;;;;;;;18.70;8.23;;;;;;;11.32;100.00;102380.97;5052749;28;20493;-69
2022/11/13 09:19:43;;;;;;;14.50;6.80;;;;;;;11.40;100.00;102379.66;5052933;28;20478;-68
2022/11/13 09:22:10;;;;;;;17.83;8.10;;;;;;;11.40;100.00;102376.13;5053038;28;20446;-68
2022/11/13 09:24:37;;;;;;;24.93;8.97;;;;;;;11.32;100.00;102374.72;5052875;28;20489;-68
2022/11/13 09:27:04;;;;;;;16.97;9.90;;;;;;;11.33;100.00;102373.66;5052927;28;20545;-69
2022/11/13 09:29:30;;;;;;;20.63;8.97;;;;;;;11.30;100.00;102369.56;5052915;28;20445;-68
2022/11/13 09:31:58;;;;;;;17.93;7.93;;;;;;;11.40;100.00;102368.00;5052885;28;20440;-68
2022/11/13 09:34:26;;;;;;;19.00;7.43;;;;;;;11.40;100.00;102365.28;5052588;28;20445;-68
2022/11/13 09:36:53;;;;;;;18.90;7.37;;;;;;;11.41;100.00;102372.34;5052790;28;20466;-69
2022/11/13 09:39:20;;;;;;;16.77;7.77;;;;;;;11.41;99.71;102370.44;5052851;28;20477;-68
2022/11/13 09:41:50;;;;;;;18.60;9.70;;;;;;;11.35;99.91;102369.59;5052486;28;20447;-68
2022/11/13 09:44:20;;;;;;;22.73;9.50;;;;;;;11.37;99.72;102377.47;5052818;28;20466;-68
2022/11/13 09:46:51;;;;;;;20.97;9.13;;;;;;;11.29;99.89;102378.81;5052692;28;20851;-68
2022/11/13 09:49:29;;;;;;;16.80;8.33;;;;;;;11.25;100.00;102374.16;5052432;28;20452;-68
2022/11/13 09:51:58;;;;;;;21.57;11.23;;;;;;;11.34;100.00;102373.41;5052795;28;20429;-69
2022/11/13 09:54:25;;;;;;;23.20;10.03;;;;;;;11.33;100.00;102370.94;5052678;28;20466;-68
2022/11/13 09:57:00;;;;;;;24.83;9.60;;;;;;;11.39;100.00;102371.81;5052583;28;20454;-68
2022/11/13 09:59:32;;;;;;;23.27;9.20;;;;;;;11.49;100.00;102363.72;5052733;28;20425;-68
2022/11/13 10:02:04;;;;;;;17.93;8.30;;;;;;;11.45;99.76;102366.13;5052574;28;20447;-68
2022/11/13 10:04:48;;;;;;;17.80;8.30;;;;;;;11.46;99.20;102364.22;5052527;28;20553;-69
2022/11/13 10:07:28;;;;;;;20.47;9.60;;;;;;;11.40;98.24;102371.53;5052488;28;20489;-69
2022/11/13 10:10:05;;;;;;;16.47;8.07;;;;;;;11.41;98.01;102356.88;5052616;28;20796;-69
2022/11/13 10:12:33;;;;;;;20.97;9.27;;;;;;;11.33;98.60;102344.66;5052332;28;20422;-69
2022/11/13 10:15:03;;;;;;;30.87;9.10;;;;;;;11.31;99.74;102335.94;5052576;28;20470;-69
2022/11/13 10:17:37;;;;;;;22.73;9.93;;;;;;;11.40;99.72;102341.69;5052015;28;20553;-69
2022/11/13 10:20:14;;;;;;;20.23;9.40;;;;;;;11.45;99.51;102338.19;5052579;28;20529;-69
2022/11/13 10:22:44;;;;;;;18.73;8.83;;;;;;;11.54;99.60;102340.13;5056090;28;20841;-69
2022/11/13 10:25:15;;;;;;;21.43;8.77;;;;;;;11.57;99.20;102344.22;5055714;28;21094;-69
2022/11/13 10:27:43;;;;;;;19.13;8.70;;;;;;;11.55;98.72;102343.66;5055758;28;20462;-68
2022/11/13 10:30:15;;;;;;;16.33;7.83;;;;;;;11.56;98.29;102331.72;5055917;28;20470;-69
2022/11/13 10:32:43;;;;;;;15.97;8.03;;;;;;;11.61;98.44;102323.63;5055856;28;20448;-69
2022/11/13 10:35:26;;;;;;;17.30;7.87;;;;;;;11.68;97.86;102328.78;5055498;28;20447;-69
2022/11/13 10:38:01;;;;;;;25.47;8.70;;;;;;;11.74;97.42;102322.31;5055410;28;20465;-68
2022/11/13 10:40:30;;;;;;;15.60;6.90;;;;;;;11.79;96.91;102325.84;5055318;28;20469;-69
2022/11/13 10:43:05;;;;;;;16.30;8.13;;;;;;;11.84;96.48;102322.38;5055705;28;20448;-68
2022/11/13 10:45:32;;;;;;;21.73;9.03;;;;;;;11.72;96.29;102316.31;5055618;28;20564;-69
2022/11/13 10:47:59;;;;;;;19.07;9.97;;;;;;;11.61;95.99;102313.56;5055514;28;20484;-68
2022/11/13 10:50:29;;;;;;;14.70;7.80;;;;;;;11.61;94.71;102315.47;5055525;28;20449;-68
2022/11/13 10:52:57;;;;;;;19.30;8.60;;;;;;;11.58;94.38;102313.28;5055272;28;20958;-68
2022/11/13 10:55:35;;;;;;;15.07;7.93;;;;;;;11.50;93.88;102309.16;5055190;28;20522;-68
2022/11/13 10:58:03;;;;;;;21.97;8.70;;;;;;;11.57;93.21;102311.66;5055406;28;20454;-68
2022/11/13 11:00:32;;;;;;;13.77;7.33;;;;;;;11.62;93.60;102303.53;5055423;28;20481;-68
2022/11/13 11:02:59;;;;;;;17.67;9.03;;;;;;;11.71;93.45;102295.69;5055341;28;20446;-68
2022/11/13 11:05:28;;;;;;;15.97;9.50;;;;;;;11.76;93.06;102290.28;5055240;28;20478;-69
2022/11/13 11:07:56;;;;;;;14.67;7.90;;;;;;;11.84;92.58;102308.78;5055545;28;20474;-69
2022/11/13 11:10:30;;;;;;;15.33;7.60;;;;;;;11.92;91.98;102307.47;5055187;28;20470;-68
2022/11/13 11:13:02;;;;;;;15.50;7.70;;;;;;;11.94;91.60;102294.41;5055191;28;20438;-68
2022/11/13 11:15:42;;;;;;;13.47;6.70;;;;;;;11.98;91.11;102292.81;5055092;28;20463;-68
2022/11/13 11:18:22;;;;;;;18.90;8.20;;;;;;;12.01;90.58;102289.56;5055977;28;20581;-68
2022/11/13 11:20:53;;;;;;;17.97;7.83;;;;;;;12.00;90.07;102282.50;5054686;28;20445;-68